PMDY

Henderson Field Airport

Midway Atoll, , Midway Islands
PMDY 171124Z 1712/1812 03011G15KT P6SM VCSH SCT025 BKN035 FM171800 04012KT P6SM FEW025 SCT040
Issued Valid From Valid To
Dec-17 @ 11:24 UTC
(an hour ago)
Dec-17 @ 12:00 UTC
(29 minutes ago)
Dec-18 @ 12:00 UTC
(in 24 hours)
Dec-17 @ 12:00 to Dec-17 @ 18:00
PMDY 171124Z 1712/1812 03011G15KT P6SM VCSH SCT025 BKN035
Wind Visibility Clouds
30° at 11 knots
 Gusting to 15 knots
10,000+ meters
  • Scattered at 2,500' AGL
  • Broken at 3,500' AGL
From Dec-17 @ 18:00 to Dec-18 @ 12:00
FM171800 04012KT P6SM FEW025 SCT040
Wind Visibility Clouds
40° at 12 knots 10,000+ meters
  • Few at 2,500' AGL
  • Scattered at 4,000' AGL
PMDY 171124Z 1712/1812 03011G15KT P6SM VCSH SCT025 BKN035 FM171800 04012KT P6SM FEW025 SCT040
Issued Dec-17 @ 11:24 UTC
(an hour ago)
Valid From Dec-17 @ 12:00 UTC
(29 minutes ago)
Valid To Dec-18 @ 12:00 UTC
(in 24 hours)
Dec-17 @ 12:00 - Dec-17 @ 18:00
Wind Visibility
30° at 11 knots
 Gusting to 15 knots
10,000+ meters
Clouds
  • Scattered at 2,500' AGL
  • Broken at 3,500' AGL
From Dec-17 @ 18:00 - Dec-18 @ 12:00
Wind Visibility
40° at 12 knots 10,000+ meters
Clouds
  • Few at 2,500' AGL
  • Scattered at 4,000' AGL